Time;durP1;ratioP1;P1;durP2;ratioP2;P2;SDS_P1;SDS_P2;PMS_P1;PMS_P2;Temp;Humidity;BMP_temperature;BMP_pressure;BME280_temperature;BME280_humidity;BME280_pressure;Samples;Min_cycle;Max_cycle;Signal;HPM_P1;HPM_P2
2021/04/14 00:00:07;;;;;;;12.87;11.57;;;2.10;99.90;;;;;;5022124;28;20225;-81
2021/04/14 00:02:34;;;;;;;11.73;10.53;;;2.20;99.90;;;;;;5022458;28;20199;-81
2021/04/14 00:05:00;;;;;;;11.33;10.13;;;2.20;99.90;;;;;;5040248;28;20548;-81
2021/04/14 00:07:26;;;;;;;11.73;10.50;;;2.20;99.90;;;;;;5040060;28;20181;-81
2021/04/14 00:09:52;;;;;;;12.03;10.77;;;2.10;99.90;;;;;;5021324;28;20237;-81
2021/04/14 00:12:19;;;;;;;10.60;9.50;;;2.10;99.90;;;;;;5022509;28;20243;-81
2021/04/14 00:14:46;;;;;;;10.33;9.27;;;2.10;99.90;;;;;;5040195;28;20199;-80
2021/04/14 00:17:12;;;;;;;11.00;9.90;;;2.10;99.90;;;;;;5022239;28;20182;-81
2021/04/14 00:19:37;;;;;;;10.10;9.10;;;2.30;99.90;;;;;;5040202;28;20259;-81
2021/04/14 00:22:04;;;;;;;9.97;8.80;;;2.10;99.90;;;;;;5039527;28;20691;-81
2021/04/14 00:24:32;;;;;;;10.63;9.53;;;2.10;99.90;;;;;;5040108;28;20237;-80
2021/04/14 00:26:58;;;;;;;9.03;8.23;;;2.10;99.90;;;;;;5022075;28;20255;-81
2021/04/14 00:29:23;;;;;;;9.17;8.20;;;2.10;99.90;;;;;;5021645;28;20256;-81
2021/04/14 00:31:49;;;;;;;9.63;8.17;;;2.10;99.90;;;;;;5039352;28;20550;-80
2021/04/14 00:34:20;;;;;;;14.50;7.70;;;2.10;99.90;;;;;;5040015;28;20183;-80
2021/04/14 00:36:48;;;;;;;9.53;7.27;;;2.10;99.90;;;;;;5039705;28;20646;-81
2021/04/14 00:39:25;;;;;;;8.23;7.43;;;2.00;99.90;;;;;;5039155;28;20178;-81
2021/04/14 00:41:52;;;;;;;8.10;7.40;;;2.00;99.90;;;;;;5039131;28;20256;-81
2021/04/14 00:44:20;;;;;;;8.10;7.23;;;2.10;99.90;;;;;;5022194;28;20179;-81
2021/04/14 00:46:45;;;;;;;9.30;7.47;;;2.00;99.90;;;;;;5039894;28;20177;-80
2021/04/14 00:49:13;;;;;;;9.17;8.03;;;2.00;99.90;;;;;;5038990;28;20244;-80
2021/04/14 00:51:39;;;;;;;9.03;8.00;;;1.90;99.90;;;;;;5021711;28;20182;-80
2021/04/14 00:54:05;;;;;;;8.80;7.90;;;1.90;99.90;;;;;;5040106;28;20711;-81
2021/04/14 00:56:31;;;;;;;9.17;8.27;;;1.90;99.90;;;;;;5021347;28;20199;-80
2021/04/14 00:58:57;;;;;;;10.23;7.53;;;1.90;99.90;;;;;;5039655;28;20183;-79
2021/04/14 01:01:23;;;;;;;8.47;7.60;;;1.90;99.90;;;;;;5021429;28;20194;-81
2021/04/14 01:03:49;;;;;;;8.77;7.97;;;1.80;99.90;;;;;;5040139;28;20297;-80
2021/04/14 01:06:19;;;;;;;8.30;7.53;;;1.80;99.90;;;;;;5021977;28;20219;-79
2021/04/14 01:08:45;;;;;;;8.47;7.60;;;1.80;99.90;;;;;;5040745;28;20171;-81
2021/04/14 01:11:12;;;;;;;8.83;7.90;;;1.80;99.90;;;;;;5040638;28;20203;-81
2021/04/14 01:13:37;;;;;;;8.00;7.30;;;1.80;99.90;;;;;;5040077;28;20177;-81
2021/04/14 01:16:03;;;;;;;8.27;7.43;;;1.80;99.90;;;;;;5039575;28;20218;-81
2021/04/14 01:18:33;;;;;;;7.27;6.57;;;1.80;99.90;;;;;;5001960;28;20175;-81
2021/04/14 01:21:00;;;;;;;7.70;6.90;;;1.80;99.90;;;;;;5030871;28;20168;-79
2021/04/14 01:23:29;;;;;;;7.53;6.83;;;1.80;99.90;;;;;;5036030;28;20645;-81
2021/04/14 01:25:55;;;;;;;7.43;6.67;;;1.80;99.90;;;;;;5023253;28;20233;-80
2021/04/14 01:28:31;;;;;;;6.73;6.13;;;1.80;99.90;;;;;;5041292;28;20645;-81
2021/04/14 01:30:59;;;;;;;6.63;5.93;;;1.80;99.90;;;;;;5041021;28;20175;-80
2021/04/14 01:33:29;;;;;;;6.33;5.83;;;1.80;99.90;;;;;;5039001;28;20545;-80
2021/04/14 01:35:55;;;;;;;7.50;6.80;;;1.80;99.90;;;;;;5037573;28;20687;-80
2021/04/14 01:38:20;;;;;;;7.70;6.57;;;1.80;99.90;;;;;;5019179;28;20248;-80
2021/04/14 01:40:46;;;;;;;7.03;6.43;;;1.80;99.90;;;;;;5037386;28;20228;-80
2021/04/14 01:43:12;;;;;;;7.20;6.50;;;1.70;99.90;;;;;;5036816;28;20210;-79
2021/04/14 01:45:41;;;;;;;7.50;6.90;;;1.60;99.90;;;;;;5037008;28;20194;-78
2021/04/14 01:48:08;;;;;;;10.67;7.17;;;1.60;99.90;;;;;;5019816;28;20551;-79
2021/04/14 01:50:34;;;;;;;6.83;6.20;;;1.60;99.90;;;;;;5035989;28;20274;-79
2021/04/14 01:53:00;;;;;;;7.67;6.97;;;1.50;99.90;;;;;;5018672;28;20174;-79
2021/04/14 01:55:27;;;;;;;7.70;6.90;;;1.50;99.90;;;;;;5018943;28;20195;-80
2021/04/14 01:57:53;;;;;;;6.83;6.17;;;1.50;99.90;;;;;;5019100;28;20178;-80
2021/04/14 02:00:20;;;;;;;8.23;7.00;;;1.50;99.90;;;;;;5019013;28;20189;-80
2021/04/14 02:02:47;;;;;;;7.67;6.97;;;1.60;99.90;;;;;;5036531;28;20232;-79
2021/04/14 02:05:14;;;;;;;7.87;7.00;;;1.50;99.90;;;;;;5027348;28;20221;-79
2021/04/14 02:07:41;;;;;;;7.83;6.87;;;1.50;99.90;;;;;;5036415;28;20178;-79
2021/04/14 02:10:09;;;;;;;7.33;6.60;;;1.40;99.90;;;;;;5018239;28;20177;-80
2021/04/14 02:12:36;;;;;;;8.77;6.93;;;1.40;99.90;;;;;;5036544;28;20206;-80
2021/04/14 02:15:04;;;;;;;7.63;6.77;;;1.50;99.90;;;;;;5018420;28;20285;-80
2021/04/14 02:17:31;;;;;;;8.27;7.27;;;1.40;99.90;;;;;;5036383;28;20175;-79
2021/04/14 02:19:56;;;;;;;7.73;7.03;;;1.40;99.90;;;;;;5017826;28;20177;-79
2021/04/14 02:22:22;;;;;;;7.23;6.47;;;1.40;99.90;;;;;;5015091;28;20198;-81
2021/04/14 02:24:48;;;;;;;7.73;6.43;;;1.30;99.90;;;;;;5025081;28;20614;-81
2021/04/14 02:27:14;;;;;;;6.77;6.17;;;1.40;99.90;;;;;;5034151;28;20179;-79
2021/04/14 02:29:39;;;;;;;6.60;6.00;;;1.40;99.90;;;;;;5016353;28;20248;-79
2021/04/14 02:32:06;;;;;;;8.20;6.90;;;1.30;99.90;;;;;;5036351;28;20589;-79
2021/04/14 02:34:31;;;;;;;7.83;7.13;;;1.30;99.90;;;;;;5017912;28;20209;-80
2021/04/14 02:36:57;;;;;;;6.90;6.30;;;1.30;99.90;;;;;;5000935;28;20191;-78
2021/04/14 02:39:23;;;;;;;8.90;6.90;;;1.30;99.90;;;;;;5035643;28;20178;-79
2021/04/14 02:41:50;;;;;;;8.07;7.10;;;1.30;99.90;;;;;;5036539;28;20245;-79
2021/04/14 02:44:16;;;;;;;7.20;6.50;;;1.30;99.90;;;;;;5036479;28;20175;-80
2021/04/14 02:46:42;;;;;;;6.73;6.17;;;1.30;99.90;;;;;;5036782;28;20203;-80
2021/04/14 02:49:09;;;;;;;7.57;6.40;;;1.20;99.90;;;;;;5036753;28;20583;-80
2021/04/14 02:51:34;;;;;;;8.37;7.57;;;1.20;99.90;;;;;;5037477;28;20190;-80
2021/04/14 02:54:00;;;;;;;9.93;7.50;;;1.20;99.90;;;;;;5037270;28;20186;-79
2021/04/14 02:56:26;;;;;;;7.23;6.53;;;1.20;99.90;;;;;;5036559;28;20194;-80
2021/04/14 02:58:52;;;;;;;7.67;6.80;;;1.20;99.90;;;;;;5036355;28;20174;-81
2021/04/14 03:01:18;;;;;;;8.77;7.23;;;1.30;99.90;;;;;;5019200;28;20193;-79
2021/04/14 03:03:52;;;;;;;8.77;7.50;;;1.30;99.90;;;;;;5036822;28;20177;-78
2021/04/14 03:06:18;;;;;;;10.63;7.10;;;1.40;99.90;;;;;;5036040;28;20689;-80
2021/04/14 03:08:44;;;;;;;8.03;6.40;;;1.20;99.90;;;;;;5035437;28;20229;-80
2021/04/14 03:11:10;;;;;;;6.83;6.13;;;1.20;99.90;;;;;;5018986;28;20201;-79
2021/04/14 03:13:36;;;;;;;8.73;6.13;;;1.20;99.90;;;;;;5037205;28;20201;-80
2021/04/14 03:16:03;;;;;;;7.00;6.30;;;1.10;99.90;;;;;;5032884;28;20195;-80
2021/04/14 03:18:29;;;;;;;7.23;6.53;;;1.00;99.90;;;;;;5036871;28;20178;-80
2021/04/14 03:20:55;;;;;;;7.37;6.77;;;1.00;99.90;;;;;;5036863;28;20202;-79
2021/04/14 03:23:21;;;;;;;8.20;7.50;;;0.90;99.90;;;;;;5037046;28;20205;-79
2021/04/14 03:25:46;;;;;;;7.40;6.47;;;0.90;99.90;;;;;;5017925;28;20217;-79
2021/04/14 03:28:13;;;;;;;7.43;6.73;;;0.80;99.90;;;;;;5036301;28;20563;-79
2021/04/14 03:30:40;;;;;;;7.90;7.10;;;0.70;99.90;;;;;;5017565;28;20198;-81
2021/04/14 03:33:06;;;;;;;11.70;6.80;;;0.70;99.90;;;;;;5037055;28;20174;-80
2021/04/14 03:35:32;;;;;;;8.83;6.77;;;0.60;99.90;;;;;;5017481;28;20284;-80
2021/04/14 03:38:01;;;;;;;8.37;6.87;;;0.60;99.90;;;;;;5034751;28;20641;-80
2021/04/14 03:40:27;;;;;;;9.30;6.20;;;0.60;99.90;;;;;;5016812;28;20178;-80
2021/04/14 03:42:54;;;;;;;7.73;7.03;;;0.70;99.90;;;;;;5034746;28;20221;-81
2021/04/14 03:45:27;;;;;;;9.33;7.33;;;0.60;99.90;;;;;;5031721;28;20193;-80
2021/04/14 03:47:53;;;;;;;8.73;7.13;;;0.60;99.90;;;;;;5034702;28;20166;-79
2021/04/14 03:50:20;;;;;;;8.07;7.30;;;0.60;99.90;;;;;;5032037;28;20185;-80
2021/04/14 03:52:47;;;;;;;8.57;6.73;;;0.60;99.90;;;;;;5016830;28;20175;-80
2021/04/14 03:55:15;;;;;;;7.40;6.70;;;0.60;99.90;;;;;;5034497;28;20191;-79
2021/04/14 03:57:41;;;;;;;7.40;6.70;;;0.60;99.90;;;;;;5016673;28;20186;-80
2021/04/14 04:00:09;;;;;;;6.80;6.10;;;0.60;99.90;;;;;;5035982;28;20190;-78
2021/04/14 04:02:36;;;;;;;7.13;6.43;;;0.70;99.90;;;;;;5020378;28;20195;-81
2021/04/14 04:05:02;;;;;;;6.47;5.77;;;0.70;99.90;;;;;;5021506;28;20191;-80
2021/04/14 04:07:28;;;;;;;7.47;6.67;;;0.70;99.90;;;;;;5021121;28;20543;-80
2021/04/14 04:09:54;;;;;;;6.97;6.27;;;0.80;99.90;;;;;;5017443;28;20180;-80
2021/04/14 04:12:20;;;;;;;6.23;5.63;;;0.80;99.90;;;;;;5022463;28;20183;-79
2021/04/14 04:14:48;;;;;;;6.90;6.30;;;0.90;99.90;;;;;;5031229;28;20202;-80
2021/04/14 04:17:16;;;;;;;6.80;6.00;;;0.90;99.90;;;;;;5057805;28;20209;-80
2021/04/14 04:19:41;;;;;;;7.13;6.43;;;0.90;99.90;;;;;;5033883;28;20179;-79
2021/04/14 04:22:08;;;;;;;7.30;6.60;;;0.90;99.90;;;;;;5037814;28;20731;-80
2021/04/14 04:24:34;;;;;;;7.40;6.70;;;0.90;99.90;;;;;;5037475;28;20257;-79
2021/04/14 04:27:00;;;;;;;7.27;6.57;;;0.90;99.90;;;;;;5026214;28;20185;-80
2021/04/14 04:29:26;;;;;;;6.60;5.97;;;0.90;99.90;;;;;;5020356;28;20250;-79
2021/04/14 04:31:53;;;;;;;7.30;6.47;;;0.90;99.90;;;;;;5009160;28;20185;-80
2021/04/14 04:34:18;;;;;;;6.47;5.87;;;0.80;99.90;;;;;;5021430;28;20185;-81
2021/04/14 04:36:44;;;;;;;8.43;6.47;;;0.80;99.90;;;;;;5039476;28;20195;-80
2021/04/14 04:39:10;;;;;;;7.23;6.53;;;0.80;99.90;;;;;;5038216;28;20261;-80
2021/04/14 04:41:36;;;;;;;6.60;6.00;;;0.70;99.90;;;;;;5037549;28;20226;-80
2021/04/14 04:44:03;;;;;;;7.67;6.87;;;0.70;99.90;;;;;;5038382;28;20225;-79
2021/04/14 04:46:28;;;;;;;6.80;6.13;;;0.70;99.90;;;;;;5034618;28;20206;-79
2021/04/14 04:48:55;;;;;;;9.00;7.00;;;0.70;99.90;;;;;;5035846;28;20188;-79
2021/04/14 04:51:21;;;;;;;10.27;6.60;;;0.60;99.90;;;;;;5038435;28;20514;-79
2021/04/14 04:53:46;;;;;;;7.13;6.43;;;0.60;99.90;;;;;;5020769;28;20178;-79
2021/04/14 04:56:13;;;;;;;7.40;6.63;;;0.70;99.90;;;;;;5026789;28;20287;-78
2021/04/14 04:58:39;;;;;;;7.40;6.67;;;0.60;99.90;;;;;;5038754;28;20185;-81
2021/04/14 05:01:06;;;;;;;6.10;5.20;;;0.70;99.90;;;;;;5038764;28;20611;-80
2021/04/14 05:03:32;;;;;;;7.30;6.33;;;0.70;99.90;;;;;;5004615;28;20182;-79
2021/04/14 05:05:59;;;;;;;6.73;6.03;;;0.70;99.90;;;;;;5035412;28;20510;-78
2021/04/14 05:08:25;;;;;;;9.63;7.10;;;0.70;99.90;;;;;;5038071;28;20178;-80
2021/04/14 05:10:53;;;;;;;8.07;6.27;;;0.60;99.90;;;;;;5037217;28;20186;-78
2021/04/14 05:13:20;;;;;;;7.43;6.23;;;0.70;99.90;;;;;;5020027;28;20528;-79
2021/04/14 05:15:46;;;;;;;11.70;7.20;;;0.70;99.90;;;;;;5017244;28;20233;-82
2021/04/14 05:18:12;;;;;;;6.90;6.20;;;0.70;99.90;;;;;;5025383;28;20205;-80
2021/04/14 05:20:39;;;;;;;6.70;5.97;;;0.80;99.90;;;;;;5038492;28;20587;-80
2021/04/14 05:23:07;;;;;;;6.40;5.80;;;0.80;99.90;;;;;;5032054;28;20202;-80
2021/04/14 05:25:38;;;;;;;6.00;5.27;;;0.80;99.90;;;;;;5048247;23;21680;-77
2021/04/14 05:28:09;;;;;;;6.57;5.87;;;0.80;99.90;;;;;;5037155;28;20171;-77
2021/04/14 05:30:35;;;;;;;6.60;6.07;;;0.90;99.90;;;;;;5020640;28;20179;-77
2021/04/14 05:33:02;;;;;;;6.23;5.63;;;0.90;99.90;;;;;;5035312;28;20182;-77
2021/04/14 05:35:28;;;;;;;6.57;5.83;;;0.90;99.90;;;;;;5036608;28;20197;-77
2021/04/14 05:37:54;;;;;;;6.10;5.50;;;0.90;99.90;;;;;;5036201;28;20708;-78
2021/04/14 05:40:22;;;;;;;6.83;6.13;;;1.00;99.90;;;;;;5019181;28;20225;-77
2021/04/14 05:42:49;;;;;;;8.77;5.93;;;1.00;99.90;;;;;;5015731;28;20191;-77
2021/04/14 05:45:21;;;;;;;6.23;5.13;;;1.20;99.90;;;;;;5033068;28;20282;-77
2021/04/14 05:47:47;;;;;;;11.50;5.57;;;1.20;99.90;;;;;;5032530;28;20526;-77
2021/04/14 05:50:16;;;;;;;7.97;5.03;;;1.20;99.90;;;;;;5034521;28;20190;-76
2021/04/14 05:52:42;;;;;;;4.93;4.43;;;1.30;99.90;;;;;;5034712;28;20527;-77
2021/04/14 05:55:08;;;;;;;4.70;4.23;;;1.20;99.90;;;;;;5035835;28;20198;-78
2021/04/14 05:57:35;;;;;;;6.77;4.97;;;1.20;99.90;;;;;;5025960;28;20241;-78
2021/04/14 06:00:01;;;;;;;25.10;5.13;;;1.20;99.90;;;;;;5022941;28;20257;-77
2021/04/14 06:02:26;;;;;;;12.57;4.07;;;1.30;99.90;;;;;;5036241;28;20279;-77
2021/04/14 06:04:52;;;;;;;5.50;4.07;;;1.50;99.90;;;;;;5035194;28;20202;-77
2021/04/14 06:07:19;;;;;;;4.63;4.20;;;1.50;99.90;;;;;;5032381;28;20840;-76
2021/04/14 06:09:47;;;;;;;4.30;3.60;;;1.40;99.90;;;;;;5033412;28;20171;-76
2021/04/14 06:12:13;;;;;;;5.67;4.80;;;1.50;99.90;;;;;;5035389;28;20194;-76
2021/04/14 06:14:38;;;;;;;7.13;5.13;;;1.60;99.90;;;;;;5033860;28;20259;-76
2021/04/14 06:17:04;;;;;;;5.10;4.60;;;1.60;99.90;;;;;;5026535;28;20205;-76
2021/04/14 06:19:30;;;;;;;6.97;4.80;;;1.70;99.90;;;;;;5029608;28;20188;-76
2021/04/14 06:21:55;;;;;;;4.43;3.97;;;1.70;99.90;;;;;;5030218;28;20202;-76
2021/04/14 06:24:22;;;;;;;4.40;3.97;;;1.60;99.90;;;;;;5019535;28;20184;-76
2021/04/14 06:26:51;;;;;;;8.00;4.93;;;1.70;99.90;;;;;;5031921;28;20302;-79
2021/04/14 06:29:16;;;;;;;5.83;4.30;;;1.80;99.90;;;;;;5033813;28;20175;-77
2021/04/14 06:31:42;;;;;;;5.10;4.07;;;2.00;99.90;;;;;;5017917;28;20672;-77
2021/04/14 06:34:16;;;;;;;4.60;4.10;;;2.10;99.90;;;;;;5026740;28;20195;-77
2021/04/14 06:36:44;;;;;;;4.47;4.07;;;2.20;99.90;;;;;;5032069;28;20201;-77
2021/04/14 06:39:11;;;;;;;7.77;4.37;;;2.20;99.90;;;;;;5032113;28;20228;-76
2021/04/14 06:42:08;;;;;;;76.77;7.40;;;2.20;99.90;;;;;;5017571;28;20281;-76
2021/04/14 06:44:39;;;;;;;19.63;3.40;;;2.40;99.90;;;;;;5013382;28;20653;-77
2021/04/14 06:47:16;;;;;;;4.60;3.30;;;2.60;99.90;;;;;;5029693;28;20206;-77
2021/04/14 06:50:01;;;;;;;4.40;3.27;;;2.80;99.90;;;;;;5030394;28;20174;-77
2021/04/14 06:52:43;;;;;;;8.23;3.37;;;2.90;99.90;;;;;;5033623;28;20189;-76
2021/04/14 06:55:30;;;;;;;4.80;3.17;;;2.90;99.90;;;;;;5031920;28;20203;-76
2021/04/14 06:57:59;;;;;;;5.73;2.80;;;3.00;99.90;;;;;;5030925;28;20201;-77
2021/04/14 07:00:33;;;;;;;4.17;3.07;;;3.00;99.90;;;;;;5033467;28;20178;-76
2021/04/14 07:03:22;;;;;;;4.80;2.93;;;3.20;99.90;;;;;;5031059;28;20222;-76
2021/04/14 07:05:56;;;;;;;3.63;2.77;;;3.30;99.90;;;;;;5033439;28;20661;-76
2021/04/14 07:08:26;;;;;;;2.60;2.40;;;3.30;99.90;;;;;;5033379;28;20166;-76
2021/04/14 07:10:55;;;;;;;3.13;2.80;;;3.40;99.90;;;;;;5032531;28;20267;-76
2021/04/14 07:13:22;;;;;;;4.73;3.60;;;3.40;99.90;;;;;;5035557;28;20176;-77
2021/04/14 07:15:51;;;;;;;4.07;3.03;;;3.50;99.90;;;;;;5033001;28;20196;-76
2021/04/14 07:18:23;;;;;;;4.63;2.97;;;3.60;99.90;;;;;;5033023;28;20207;-76
2021/04/14 07:21:05;;;;;;;7.47;3.40;;;3.70;99.90;;;;;;5023652;28;20638;-77
2021/04/14 07:23:46;;;;;;;22.47;4.30;;;3.80;99.90;;;;;;5031063;28;20248;-77
2021/04/14 07:26:20;;;;;;;4.27;2.50;;;3.90;99.90;;;;;;5032002;28;20206;-77
2021/04/14 07:29:23;;;;;;;6.17;2.97;;;3.90;99.90;;;;;;5032937;28;20576;-77
2021/04/14 07:31:53;;;;;;;4.47;2.47;;;4.00;99.90;;;;;;5033773;28;20208;-77
2021/04/14 07:34:29;;;;;;;3.53;2.57;;;4.00;99.90;;;;;;5033682;28;20232;-77
2021/04/14 07:37:05;;;;;;;4.80;2.70;;;4.10;99.90;;;;;;5034675;28;20251;-77
2021/04/14 07:39:54;;;;;;;4.37;2.80;;;4.10;99.90;;;;;;5034915;28;20646;-77
2021/04/14 07:42:38;;;;;;;2.87;2.50;;;4.20;99.90;;;;;;5032805;28;20187;-76
2021/04/14 07:45:06;;;;;;;3.10;2.27;;;4.30;99.90;;;;;;5032891;28;20171;-77
2021/04/14 07:47:33;;;;;;;3.40;2.47;;;4.40;99.90;;;;;;5031472;28;20184;-76
2021/04/14 07:49:59;;;;;;;5.57;2.20;;;4.50;99.90;;;;;;5034836;28;20181;-76
2021/04/14 07:52:28;;;;;;;3.50;2.20;;;4.60;99.90;;;;;;5036689;28;20235;-76
2021/04/14 07:54:55;;;;;;;2.50;2.17;;;4.70;99.90;;;;;;5040751;28;20227;-77
2021/04/14 07:57:28;;;;;;;4.00;1.87;;;4.70;99.90;;;;;;5043325;28;20216;-77
2021/04/14 07:59:54;;;;;;;7.43;2.17;;;4.80;99.90;;;;;;5043450;28;20180;-77
2021/04/14 08:02:31;;;;;;;3.53;2.00;;;4.90;99.90;;;;;;5018236;28;20229;-77
2021/04/14 08:05:26;;;;;;;4.83;2.07;;;5.10;99.90;;;;;;5034789;28;20179;-77
2021/04/14 08:07:52;;;;;;;3.30;1.83;;;5.10;99.90;;;;;;5035127;28;20177;-77
2021/04/14 08:10:23;;;;;;;3.07;1.60;;;5.20;99.90;;;;;;5036605;28;20260;-77
2021/04/14 08:13:06;;;;;;;3.30;1.47;;;5.30;99.90;;;;;;5035198;28;20600;-76
2021/04/14 08:15:42;;;;;;;2.80;1.57;;;5.30;99.90;;;;;;5034815;28;20253;-77
2021/04/14 08:18:17;;;;;;;3.17;2.07;;;5.50;99.90;;;;;;5034865;28;20185;-77
2021/04/14 08:20:49;;;;;;;2.43;1.73;;;5.50;99.90;;;;;;5030999;28;20230;-77
2021/04/14 08:23:21;;;;;;;3.57;1.70;;;5.60;99.90;;;;;;5031191;28;20284;-77
2021/04/14 08:25:56;;;;;;;4.00;1.60;;;5.70;99.90;;;;;;5035921;28;20216;-77
2021/04/14 08:28:43;;;;;;;2.83;1.60;;;5.70;99.90;;;;;;5035825;28;20701;-77
2021/04/14 08:31:45;;;;;;;3.53;1.80;;;5.70;99.90;;;;;;5036171;28;20162;-77
2021/04/14 08:34:30;;;;;;;7.27;1.80;;;5.70;99.90;;;;;;5036073;28;20180;-77
2021/04/14 08:37:08;;;;;;;2.93;1.90;;;5.70;99.90;;;;;;5036076;28;20287;-77
2021/04/14 08:39:34;;;;;;;2.10;1.60;;;5.70;99.90;;;;;;5035726;28;20187;-77
2021/04/14 08:42:13;;;;;;;2.00;1.80;;;5.80;99.90;;;;;;5034314;28;20193;-77
2021/04/14 08:44:43;;;;;;;2.47;1.70;;;5.90;99.90;;;;;;5034400;28;20180;-77
2021/04/14 08:47:27;;;;;;;1.60;1.50;;;6.10;99.90;;;;;;5035448;28;20224;-77
2021/04/14 08:50:11;;;;;;;2.63;1.80;;;6.10;99.90;;;;;;5035792;28;20256;-76
2021/04/14 08:52:44;;;;;;;3.50;2.10;;;6.00;99.90;;;;;;5035555;28;20170;-76
2021/04/14 08:55:12;;;;;;;3.43;1.70;;;5.90;99.90;;;;;;5035220;28;20553;-77
2021/04/14 08:57:38;;;;;;;2.27;1.40;;;5.90;99.90;;;;;;5035299;28;20192;-77
2021/04/14 09:00:06;;;;;;;3.80;1.60;;;5.90;99.90;;;;;;5034911;28;20194;-77
2021/04/14 09:02:33;;;;;;;2.60;1.60;;;5.90;99.90;;;;;;5046228;28;20205;-78
2021/04/14 09:05:01;;;;;;;3.37;1.60;;;6.00;99.90;;;;;;5040862;28;20291;-77
2021/04/14 09:07:33;;;;;;;1.60;1.50;;;6.10;99.90;;;;;;5038319;28;20218;-78
2021/04/14 09:10:00;;;;;;;3.07;1.70;;;6.00;99.90;;;;;;5037175;28;20717;-77
2021/04/14 09:12:35;;;;;;;4.27;1.83;;;6.00;99.90;;;;;;5036684;28;20186;-77
2021/04/14 09:15:04;;;;;;;2.30;1.63;;;5.90;99.90;;;;;;5035542;28;20594;-77
2021/04/14 09:17:30;;;;;;;2.77;1.80;;;6.00;99.90;;;;;;5035660;28;20350;-77
2021/04/14 09:20:15;;;;;;;3.37;1.50;;;5.90;99.90;;;;;;5034773;28;20608;-77
2021/04/14 09:22:41;;;;;;;3.63;1.70;;;5.90;99.90;;;;;;5024970;28;20201;-77
2021/04/14 09:25:06;;;;;;;2.27;1.43;;;5.90;99.90;;;;;;5035306;28;20191;-77
2021/04/14 09:27:38;;;;;;;2.80;1.87;;;5.80;99.90;;;;;;5035880;28;20263;-77
2021/04/14 09:30:31;;;;;;;3.73;1.77;;;5.80;99.90;;;;;;5036185;28;20211;-77
2021/04/14 09:33:06;;;;;;;3.50;1.70;;;5.80;99.90;;;;;;5036429;28;20214;-77
2021/04/14 09:35:32;;;;;;;2.27;1.70;;;5.80;99.90;;;;;;5035879;28;20328;-77
2021/04/14 09:38:08;;;;;;;3.13;1.70;;;6.00;99.90;;;;;;5035835;28;20209;-77
2021/04/14 09:40:35;;;;;;;1.87;1.73;;;6.00;99.90;;;;;;5035730;28;20684;-77
2021/04/14 09:43:14;;;;;;;2.83;1.67;;;5.90;99.90;;;;;;5034799;28;20566;-77
2021/04/14 09:45:40;;;;;;;2.73;1.50;;;5.90;99.90;;;;;;5035791;28;20197;-77
2021/04/14 09:48:17;;;;;;;2.50;1.70;;;5.90;99.90;;;;;;5034937;28;20177;-77
2021/04/14 09:50:45;;;;;;;2.73;1.87;;;6.00;99.90;;;;;;5035553;28;20637;-77
2021/04/14 09:53:14;;;;;;;1.60;1.40;;;6.10;99.90;;;;;;5035188;28;20598;-77
2021/04/14 09:55:47;;;;;;;1.83;1.40;;;6.20;99.90;;;;;;5036285;28;20208;-77
2021/04/14 09:58:31;;;;;;;2.13;1.47;;;6.20;99.90;;;;;;5036833;28;20509;-77
2021/04/14 10:01:10;;;;;;;2.30;1.70;;;6.20;99.90;;;;;;5036081;28;20654;-77
2021/04/14 10:03:41;;;;;;;2.10;1.27;;;6.20;99.90;;;;;;5035126;28;20574;-77
2021/04/14 10:06:15;;;;;;;3.90;1.67;;;6.30;99.90;;;;;;5036430;28;20202;-77
2021/04/14 10:08:43;;;;;;;2.40;1.53;;;6.50;99.90;;;;;;5036637;28;20162;-77
2021/04/14 10:11:20;;;;;;;2.40;1.87;;;6.70;99.90;;;;;;5035839;28;20208;-77
2021/04/14 10:13:46;;;;;;;2.57;1.80;;;6.60;99.90;;;;;;5037477;28;20189;-77
2021/04/14 10:16:19;;;;;;;2.47;1.60;;;6.70;99.90;;;;;;5036174;28;20204;-77
2021/04/14 10:18:45;;;;;;;2.93;1.60;;;6.80;99.90;;;;;;5036912;28;20173;-77
2021/04/14 10:21:24;;;;;;;2.70;1.93;;;7.00;99.90;;;;;;5018157;28;20700;-77
2021/04/14 10:24:02;;;;;;;2.33;1.80;;;7.00;99.90;;;;;;5037373;28;20174;-77
2021/04/14 10:26:29;;;;;;;2.33;1.87;;;7.10;99.90;;;;;;5035900;28;20206;-77
2021/04/14 10:28:57;;;;;;;2.23;1.60;;;7.30;99.90;;;;;;5035683;28;20175;-77
2021/04/14 10:31:23;;;;;;;2.83;1.77;;;7.40;99.90;;;;;;5036405;28;20645;-77
2021/04/14 10:33:49;;;;;;;3.83;1.70;;;7.60;99.90;;;;;;5035543;28;20192;-77
2021/04/14 10:36:20;;;;;;;3.17;2.10;;;7.50;99.30;;;;;;5034504;28;20289;-77
2021/04/14 10:38:46;;;;;;;3.17;1.80;;;7.40;99.90;;;;;;5036531;28;20168;-77
2021/04/14 10:41:30;;;;;;;3.30;1.90;;;7.40;99.90;;;;;;5034257;28;20614;-77
2021/04/14 10:43:57;;;;;;;3.27;2.00;;;7.20;99.90;;;;;;5036215;28;20177;-77
2021/04/14 10:46:27;;;;;;;2.10;1.97;;;7.20;99.90;;;;;;5036500;28;20273;-77
2021/04/14 10:49:00;;;;;;;3.67;2.20;;;7.10;99.90;;;;;;5037148;28;20175;-77
2021/04/14 10:51:39;;;;;;;3.60;1.80;;;7.20;99.90;;;;;;5035257;28;20175;-77
2021/04/14 10:54:09;;;;;;;3.27;1.90;;;7.20;99.90;;;;;;5035679;28;20174;-77
2021/04/14 10:56:35;;;;;;;4.50;2.20;;;7.10;99.40;;;;;;5035632;28;20241;-77
2021/04/14 10:59:08;;;;;;;3.67;2.20;;;7.10;99.90;;;;;;5035051;28;20174;-77
2021/04/14 11:01:43;;;;;;;1.87;1.70;;;7.00;99.90;;;;;;5034902;28;20220;-77
2021/04/14 11:04:15;;;;;;;4.70;2.13;;;7.20;99.90;;;;;;5034870;28;20189;-77
2021/04/14 11:06:42;;;;;;;4.27;2.13;;;7.50;99.90;;;;;;5036873;28;20191;-77
2021/04/14 11:09:10;;;;;;;3.67;1.70;;;7.60;99.60;;;;;;5027923;28;20180;-78
2021/04/14 11:11:38;;;;;;;2.27;1.70;;;7.50;98.10;;;;;;5034691;28;20174;-78
2021/04/14 11:14:08;;;;;;;2.53;2.10;;;7.30;99.10;;;;;;5037049;28;20178;-77
2021/04/14 11:16:38;;;;;;;3.50;2.40;;;7.30;99.20;;;;;;5035563;28;20194;-78
2021/04/14 11:19:22;;;;;;;3.23;1.80;;;7.10;98.80;;;;;;5026762;28;20175;-77
2021/04/14 11:22:02;;;;;;;3.60;2.10;;;7.00;98.90;;;;;;5019492;28;20558;-77
2021/04/14 11:24:27;;;;;;;2.47;1.90;;;7.10;98.40;;;;;;5038282;28;20177;-77
2021/04/14 11:26:58;;;;;;;2.90;1.67;;;7.30;98.80;;;;;;5037690;28;20229;-78
2021/04/14 11:29:32;;;;;;;2.63;1.90;;;7.60;98.90;;;;;;5029036;28;20170;-77
2021/04/14 11:32:03;;;;;;;7.30;2.00;;;7.60;97.20;;;;;;5038671;28;20245;-78
2021/04/14 11:34:31;;;;;;;3.37;2.30;;;7.70;96.90;;;;;;5038707;28;20171;-77
2021/04/14 11:37:20;;;;;;;2.97;2.07;;;7.90;97.40;;;;;;5038451;28;20198;-78
2021/04/14 11:40:02;;;;;;;2.83;1.80;;;8.00;97.60;;;;;;5035560;28;20587;-78
2021/04/14 11:42:42;;;;;;;3.43;2.03;;;8.10;99.00;;;;;;5023136;28;20245;-77
2021/04/14 11:45:08;;;;;;;3.27;2.00;;;8.20;97.90;;;;;;5031819;28;20208;-77
2021/04/14 11:47:35;;;;;;;2.77;2.00;;;8.20;98.20;;;;;;5039500;28;20171;-78
2021/04/14 11:50:29;;;;;;;3.50;2.10;;;8.40;98.20;;;;;;5039389;28;20175;-77
2021/04/14 11:52:57;;;;;;;3.13;1.70;;;8.40;96.90;;;;;;5031537;28;20176;-78
2021/04/14 11:55:26;;;;;;;3.53;1.30;;;8.40;96.40;;;;;;5030182;28;20794;-77
2021/04/14 11:58:05;;;;;;;3.50;1.33;;;8.40;96.40;;;;;;5036210;28;20261;-78
2021/04/14 12:00:42;;;;;;;2.83;1.33;;;8.50;93.80;;;;;;5027182;28;20183;-77
2021/04/14 12:03:13;;;;;;;3.73;1.57;;;8.60;94.20;;;;;;5038611;28;20188;-78
2021/04/14 12:05:39;;;;;;;1.53;1.33;;;8.80;94.00;;;;;;5036430;28;20201;-78
2021/04/14 12:08:05;;;;;;;2.07;1.80;;;8.90;95.20;;;;;;5031186;28;20182;-78
2021/04/14 12:10:31;;;;;;;3.27;2.07;;;8.90;94.20;;;;;;5033398;28;20176;-77
2021/04/14 12:12:57;;;;;;;2.70;1.77;;;9.00;93.60;;;;;;5033443;28;20180;-78
2021/04/14 12:15:23;;;;;;;2.57;1.50;;;8.90;93.70;;;;;;5022925;28;20206;-76
2021/04/14 12:17:48;;;;;;;4.50;1.97;;;8.70;94.10;;;;;;5024891;28;20661;-76
2021/04/14 12:20:15;;;;;;;3.20;1.70;;;8.50;94.60;;;;;;5030591;28;20177;-76
2021/04/14 12:22:41;;;;;;;2.50;1.40;;;8.40;93.80;;;;;;5033839;28;20196;-76
2021/04/14 12:25:08;;;;;;;2.03;1.60;;;8.50;94.20;;;;;;5039210;28;20719;-77
2021/04/14 12:27:34;;;;;;;1.70;1.60;;;8.60;94.20;;;;;;5036011;28;20181;-76
2021/04/14 12:29:59;;;;;;;2.70;1.67;;;8.70;94.10;;;;;;5034520;28;20180;-77
2021/04/14 12:32:25;;;;;;;1.97;1.70;;;8.80;94.10;;;;;;5034263;28;20182;-77
2021/04/14 12:34:51;;;;;;;4.23;1.60;;;8.80;93.30;;;;;;5034547;28;20180;-77
2021/04/14 12:37:17;;;;;;;3.73;1.50;;;8.90;97.40;;;;;;5035729;28;20303;-76
2021/04/14 12:39:43;;;;;;;1.67;1.50;;;8.80;96.80;;;;;;5034424;28;20271;-76
2021/04/14 12:42:09;;;;;;;3.37;1.90;;;8.90;97.50;;;;;;5035818;28;20240;-78
2021/04/14 12:44:35;;;;;;;6.67;1.63;;;8.90;97.70;;;;;;5034504;28;20611;-77
2021/04/14 12:47:01;;;;;;;2.90;1.97;;;8.60;97.20;;;;;;5035632;28;20188;-78
2021/04/14 12:49:27;;;;;;;3.20;1.40;;;8.40;97.80;;;;;;5038192;28;20646;-77
2021/04/14 12:51:56;;;;;;;3.23;2.13;;;8.20;98.80;;;;;;5034352;28;20207;-77
2021/04/14 12:54:32;;;;;;;5.10;3.27;;;8.10;97.90;;;;;;5037655;28;20186;-78
2021/04/14 12:57:08;;;;;;;4.60;2.30;;;7.90;98.80;;;;;;5037634;28;20193;-77
2021/04/14 12:59:37;;;;;;;3.57;1.93;;;7.80;98.80;;;;;;5038132;28;20534;-78
2021/04/14 13:02:23;;;;;;;2.23;1.80;;;7.70;99.10;;;;;;5036262;28;20217;-77
2021/04/14 13:05:35;;;;;;;4.60;2.33;;;7.60;99.00;;;;;;5039998;28;20174;-78
2021/04/14 13:08:14;;;;;;;4.37;2.23;;;7.40;99.90;;;;;;5032474;28;20609;-78